Terminal Aerodrome Forecast
Issued by NWS Shreveport, LA

Home | Current Version | Previous Version | Text Only | Print | Product List | Glossary On
Versions: 1 2 3 4 5 6 7 8 9 10 11 12 13 14
000
FTUS44 KSHV 300500
TAFTYR
TAF
KTYR 300525Z 3006/3106 12004KT P6SM SCT150 BKN250
     FM300800 13005KT P6SM BKN150 BKN250
     FM301200 14007KT P6SM BKN110
     FM301500 14009KT P6SM BKN100
     FM301800 15010KT P6SM FEW040 BKN100
     FM310100 13008KT P6SM BKN150 BKN250=

USA.gov is the U.S. government's official web portal to all federal, state and local government web resources and services.